sensor_id;sensor_type;location;lat;lon;timestamp;pressure;altitude;pressure_sealevel;temperature;humidity
36664;BME280;53333;51.976;20.144;2022-08-03T00:00:29;100428.84;;;19.55;69.19
36664;BME280;53333;51.976;20.144;2022-08-03T00:03:03;100420.09;;;19.51;69.05
36664;BME280;53333;51.976;20.144;2022-08-03T00:05:38;100420.25;;;19.50;69.22
36664;BME280;53333;51.976;20.144;2022-08-03T00:08:32;100433.03;;;19.48;68.74
36664;BME280;53333;51.976;20.144;2022-08-03T00:11:11;100416.91;;;19.46;68.93
36664;BME280;53333;51.976;20.144;2022-08-03T00:13:45;100422.56;;;19.43;68.83
36664;BME280;53333;51.976;20.144;2022-08-03T00:16:19;100418.41;;;19.39;69.04
36664;BME280;53333;51.976;20.144;2022-08-03T00:18:54;100425.94;;;19.35;68.92
36664;BME280;53333;51.976;20.144;2022-08-03T00:21:29;100431.59;;;19.32;68.95
36664;BME280;53333;51.976;20.144;2022-08-03T00:24:03;100437.13;;;19.31;68.46
36664;BME280;53333;51.976;20.144;2022-08-03T00:26:37;100433.66;;;19.29;68.70
36664;BME280;53333;51.976;20.144;2022-08-03T00:29:11;100432.94;;;19.27;69.00
36664;BME280;53333;51.976;20.144;2022-08-03T00:31:44;100438.34;;;19.27;68.61
36664;BME280;53333;51.976;20.144;2022-08-03T00:34:23;100439.31;;;19.26;68.80
36664;BME280;53333;51.976;20.144;2022-08-03T00:37:18;100432.22;;;19.24;68.99
36664;BME280;53333;51.976;20.144;2022-08-03T00:40:12;100432.34;;;19.23;68.75
36664;BME280;53333;51.976;20.144;2022-08-03T00:42:48;100438.59;;;19.23;68.82
36664;BME280;53333;51.976;20.144;2022-08-03T00:45:24;100444.03;;;19.23;69.18
36664;BME280;53333;51.976;20.144;2022-08-03T00:47:58;100446.00;;;19.21;68.79
36664;BME280;53333;51.976;20.144;2022-08-03T00:50:35;100438.84;;;19.20;69.07
36664;BME280;53333;51.976;20.144;2022-08-03T00:53:13;100441.44;;;19.22;69.09
36664;BME280;53333;51.976;20.144;2022-08-03T00:55:49;100438.72;;;19.22;68.64
36664;BME280;53333;51.976;20.144;2022-08-03T00:58:23;100437.00;;;19.21;68.91
36664;BME280;53333;51.976;20.144;2022-08-03T01:00:57;100442.41;;;19.21;68.74
36664;BME280;53333;51.976;20.144;2022-08-03T01:03:30;100441.69;;;19.19;69.03
36664;BME280;53333;51.976;20.144;2022-08-03T01:08:47;100438.97;;;19.19;69.00
36664;BME280;53333;51.976;20.144;2022-08-03T01:11:31;100429.03;;;19.19;68.79
36664;BME280;53333;51.976;20.144;2022-08-03T01:14:32;100426.31;;;19.19;68.94
36664;BME280;53333;51.976;20.144;2022-08-03T01:17:13;100430.84;;;19.19;68.82
36664;BME280;53333;51.976;20.144;2022-08-03T01:19:55;100430.00;;;19.18;68.66
36664;BME280;53333;51.976;20.144;2022-08-03T01:23:06;100430.97;;;19.17;68.95
36664;BME280;53333;51.976;20.144;2022-08-03T01:25:59;100433.06;;;19.14;69.00
36664;BME280;53333;51.976;20.144;2022-08-03T01:28:41;100431.56;;;19.21;68.28
36664;BME280;53333;51.976;20.144;2022-08-03T01:31:26;100432.47;;;19.10;68.69
36664;BME280;53333;51.976;20.144;2022-08-03T01:34:02;100433.69;;;19.06;68.99
36664;BME280;53333;51.976;20.144;2022-08-03T01:36:49;100442.94;;;19.03;69.31
36664;BME280;53333;51.976;20.144;2022-08-03T01:39:26;100430.38;;;19.02;69.15
36664;BME280;53333;51.976;20.144;2022-08-03T01:42:03;100434.16;;;19.00;69.44
36664;BME280;53333;51.976;20.144;2022-08-03T01:44:40;100432.47;;;18.99;69.80
36664;BME280;53333;51.976;20.144;2022-08-03T01:47:19;100429.75;;;18.99;69.73
36664;BME280;53333;51.976;20.144;2022-08-03T01:49:54;100431.72;;;18.97;69.80
36664;BME280;53333;51.976;20.144;2022-08-03T01:52:30;100429.13;;;18.95;69.49
36664;BME280;53333;51.976;20.144;2022-08-03T01:55:06;100431.09;;;18.93;69.55
36664;BME280;53333;51.976;20.144;2022-08-03T01:57:43;100430.25;;;18.93;69.61
36664;BME280;53333;51.976;20.144;2022-08-03T02:00:37;100426.53;;;18.94;69.53
36664;BME280;53333;51.976;20.144;2022-08-03T02:03:14;100424.97;;;18.91;69.69
36664;BME280;53333;51.976;20.144;2022-08-03T02:05:49;100431.34;;;18.90;69.64
36664;BME280;53333;51.976;20.144;2022-08-03T02:08:45;100428.03;;;18.86;69.67
36664;BME280;53333;51.976;20.144;2022-08-03T02:11:21;100429.00;;;18.85;69.88
36664;BME280;53333;51.976;20.144;2022-08-03T02:13:56;100422.81;;;18.83;69.83
36664;BME280;53333;51.976;20.144;2022-08-03T02:16:32;100421.09;;;18.82;69.80
36664;BME280;53333;51.976;20.144;2022-08-03T02:19:08;100418.50;;;18.81;69.69
36664;BME280;53333;51.976;20.144;2022-08-03T02:21:44;100414.81;;;18.82;69.52
36664;BME280;53333;51.976;20.144;2022-08-03T02:24:32;100416.56;;;18.83;69.34
36664;BME280;53333;51.976;20.144;2022-08-03T02:27:11;100417.53;;;18.82;69.26
36664;BME280;53333;51.976;20.144;2022-08-03T02:29:50;100420.22;;;18.82;69.55
36664;BME280;53333;51.976;20.144;2022-08-03T02:32:28;100422.94;;;18.82;69.45
36664;BME280;53333;51.976;20.144;2022-08-03T02:35:08;100413.22;;;18.79;69.25
36664;BME280;53333;51.976;20.144;2022-08-03T02:37:46;100416.81;;;18.80;69.51
36664;BME280;53333;51.976;20.144;2022-08-03T02:40:22;100409.66;;;18.79;69.36
36664;BME280;53333;51.976;20.144;2022-08-03T02:42:59;100415.19;;;18.77;69.08
36664;BME280;53333;51.976;20.144;2022-08-03T02:45:35;100412.47;;;18.77;68.91
36664;BME280;53333;51.976;20.144;2022-08-03T02:48:19;100414.34;;;18.77;69.42
36664;BME280;53333;51.976;20.144;2022-08-03T02:50:57;100418.13;;;18.74;69.05
36664;BME280;53333;51.976;20.144;2022-08-03T02:53:32;100412.72;;;18.74;69.11
36664;BME280;53333;51.976;20.144;2022-08-03T02:56:08;100420.84;;;18.74;69.37
36664;BME280;53333;51.976;20.144;2022-08-03T02:58:43;100428.84;;;18.76;69.06
36664;BME280;53333;51.976;20.144;2022-08-03T03:01:19;100423.66;;;18.73;69.45
36664;BME280;53333;51.976;20.144;2022-08-03T03:03:55;100425.63;;;18.70;69.48
36664;BME280;53333;51.976;20.144;2022-08-03T03:06:34;100425.75;;;18.69;69.20
36664;BME280;53333;51.976;20.144;2022-08-03T03:09:10;100427.72;;;18.67;68.90
36664;BME280;53333;51.976;20.144;2022-08-03T03:11:45;100429.78;;;18.63;69.29
36664;BME280;53333;51.976;20.144;2022-08-03T03:14:20;100434.47;;;18.61;69.05
36664;BME280;53333;51.976;20.144;2022-08-03T03:17:05;100432.72;;;18.60;69.42
36664;BME280;53333;51.976;20.144;2022-08-03T03:19:40;100439.88;;;18.61;69.38
36664;BME280;53333;51.976;20.144;2022-08-03T03:22:18;100437.16;;;18.61;69.10
36664;BME280;53333;51.976;20.144;2022-08-03T03:24:52;100438.91;;;18.62;69.50
36664;BME280;53333;51.976;20.144;2022-08-03T03:27:27;100436.44;;;18.59;69.42
36664;BME280;53333;51.976;20.144;2022-08-03T03:30:03;100438.25;;;18.59;69.39
36664;BME280;53333;51.976;20.144;2022-08-03T03:32:37;100439.25;;;18.58;69.37
36664;BME280;53333;51.976;20.144;2022-08-03T03:35:12;100443.06;;;18.55;69.12
36664;BME280;53333;51.976;20.144;2022-08-03T03:37:49;100435.06;;;18.54;69.23
36664;BME280;53333;51.976;20.144;2022-08-03T03:40:22;100428.81;;;18.53;69.20
36664;BME280;53333;51.976;20.144;2022-08-03T03:42:56;100436.06;;;18.52;69.03
36664;BME280;53333;51.976;20.144;2022-08-03T03:45:29;100434.34;;;18.63;68.75
36664;BME280;53333;51.976;20.144;2022-08-03T03:48:04;100443.19;;;18.54;68.83
36664;BME280;53333;51.976;20.144;2022-08-03T03:50:38;100436.19;;;18.51;68.83
36664;BME280;53333;51.976;20.144;2022-08-03T03:53:14;100444.41;;;18.49;68.98
36664;BME280;53333;51.976;20.144;2022-08-03T03:55:47;100443.53;;;18.49;69.22
36664;BME280;53333;51.976;20.144;2022-08-03T03:58:33;100449.06;;;18.47;69.30
36664;BME280;53333;51.976;20.144;2022-08-03T04:01:07;100454.47;;;18.47;68.96
36664;BME280;53333;51.976;20.144;2022-08-03T04:03:41;100454.34;;;18.49;69.34
36664;BME280;53333;51.976;20.144;2022-08-03T04:06:15;100457.06;;;18.49;69.61
36664;BME280;53333;51.976;20.144;2022-08-03T04:09:07;100455.97;;;18.51;69.19
36664;BME280;53333;51.976;20.144;2022-08-03T04:11:59;100459.31;;;18.66;68.84
36664;BME280;53333;51.976;20.144;2022-08-03T04:14:35;100461.53;;;18.61;69.09
36664;BME280;53333;51.976;20.144;2022-08-03T04:17:11;100464.84;;;18.65;68.92
36664;BME280;53333;51.976;20.144;2022-08-03T04:19:48;100461.78;;;18.69;69.30
36664;BME280;53333;51.976;20.144;2022-08-03T04:22:26;100463.28;;;18.74;69.10
36664;BME280;53333;51.976;20.144;2022-08-03T04:25:03;100471.03;;;18.78;69.38
36664;BME280;53333;51.976;20.144;2022-08-03T04:27:40;100470.69;;;18.83;69.43
36664;BME280;53333;51.976;20.144;2022-08-03T04:30:15;100467.66;;;18.87;69.08
36664;BME280;53333;51.976;20.144;2022-08-03T04:32:49;100472.53;;;18.94;68.97
36664;BME280;53333;51.976;20.144;2022-08-03T04:35:26;100482.66;;;19.03;69.31
36664;BME280;53333;51.976;20.144;2022-08-03T04:38:23;100479.94;;;19.14;69.17
36664;BME280;53333;51.976;20.144;2022-08-03T04:40:59;100485.34;;;19.26;69.09
36664;BME280;53333;51.976;20.144;2022-08-03T04:43:33;100483.78;;;19.34;68.68
36664;BME280;53333;51.976;20.144;2022-08-03T04:46:08;100480.22;;;19.45;68.51
36664;BME280;53333;51.976;20.144;2022-08-03T04:48:42;100492.72;;;19.57;67.85
36664;BME280;53333;51.976;20.144;2022-08-03T04:51:17;100491.00;;;19.68;67.67
36664;BME280;53333;51.976;20.144;2022-08-03T04:53:51;100491.16;;;19.77;67.80
36664;BME280;53333;51.976;20.144;2022-08-03T04:56:26;100486.53;;;19.89;67.73
36664;BME280;53333;51.976;20.144;2022-08-03T04:58:59;100491.09;;;20.00;67.77
36664;BME280;53333;51.976;20.144;2022-08-03T05:01:34;100484.66;;;20.12;67.52
36664;BME280;53333;51.976;20.144;2022-08-03T05:04:07;100486.19;;;20.26;67.18
36664;BME280;53333;51.976;20.144;2022-08-03T05:06:41;100490.31;;;20.42;67.14
36664;BME280;53333;51.976;20.144;2022-08-03T05:09:19;100496.00;;;20.60;66.79
36664;BME280;53333;51.976;20.144;2022-08-03T05:12:14;100484.88;;;20.74;66.62
36664;BME280;53333;51.976;20.144;2022-08-03T05:14:48;100491.22;;;20.84;66.85
36664;BME280;53333;51.976;20.144;2022-08-03T05:17:21;100491.28;;;20.94;66.39
36664;BME280;53333;51.976;20.144;2022-08-03T05:19:55;100491.91;;;21.08;65.58
36664;BME280;53333;51.976;20.144;2022-08-03T05:22:29;100491.09;;;21.17;65.65
36664;BME280;53333;51.976;20.144;2022-08-03T05:25:03;100495.41;;;21.19;64.96
36664;BME280;53333;51.976;20.144;2022-08-03T05:27:38;100489.84;;;21.21;64.65
36664;BME280;53333;51.976;20.144;2022-08-03T05:30:12;100491.28;;;21.25;64.94
36664;BME280;53333;51.976;20.144;2022-08-03T05:33:05;100493.47;;;21.31;65.13
36664;BME280;53333;51.976;20.144;2022-08-03T05:35:39;100500.78;;;21.40;65.13
36664;BME280;53333;51.976;20.144;2022-08-03T05:38:32;100494.88;;;21.56;64.72
36664;BME280;53333;51.976;20.144;2022-08-03T05:41:06;100489.06;;;21.71;64.54
36664;BME280;53333;51.976;20.144;2022-08-03T05:43:56;100491.53;;;21.93;64.16
36664;BME280;53333;51.976;20.144;2022-08-03T05:46:30;100496.56;;;22.18;63.07
36664;BME280;53333;51.976;20.144;2022-08-03T05:49:03;100498.94;;;22.42;62.26
36664;BME280;53333;51.976;20.144;2022-08-03T05:51:37;100503.91;;;22.66;62.03
36664;BME280;53333;51.976;20.144;2022-08-03T05:54:11;100499.88;;;22.90;61.57
36664;BME280;53333;51.976;20.144;2022-08-03T05:56:45;100506.69;;;23.13;60.45
36664;BME280;53333;51.976;20.144;2022-08-03T05:59:20;100511.97;;;23.34;60.32
36664;BME280;53333;51.976;20.144;2022-08-03T06:02:09;100517.56;;;23.61;60.69
36664;BME280;53333;51.976;20.144;2022-08-03T06:04:43;100518.81;;;23.76;59.05
36664;BME280;53333;51.976;20.144;2022-08-03T06:07:16;100525.63;;;23.90;59.58
36664;BME280;53333;51.976;20.144;2022-08-03T06:09:50;100517.06;;;24.03;58.87
36664;BME280;53333;51.976;20.144;2022-08-03T06:12:44;100514.69;;;24.18;59.22
36664;BME280;53333;51.976;20.144;2022-08-03T06:15:21;100517.94;;;24.03;58.01
36664;BME280;53333;51.976;20.144;2022-08-03T06:17:55;100520.28;;;23.98;58.51
36664;BME280;53333;51.976;20.144;2022-08-03T06:20:32;100526.03;;;23.95;58.16
36664;BME280;53333;51.976;20.144;2022-08-03T06:23:06;100520.31;;;23.88;57.27
36664;BME280;53333;51.976;20.144;2022-08-03T06:25:48;100530.09;;;23.81;58.01
36664;BME280;53333;51.976;20.144;2022-08-03T06:28:22;100531.00;;;23.72;58.36
36664;BME280;53333;51.976;20.144;2022-08-03T06:31:17;100532.19;;;23.69;58.92
36664;BME280;53333;51.976;20.144;2022-08-03T06:33:51;100532.88;;;23.71;59.82
36664;BME280;53333;51.976;20.144;2022-08-03T06:36:44;100535.56;;;23.81;59.84
36664;BME280;53333;51.976;20.144;2022-08-03T06:39:20;100526.91;;;23.96;59.91
36664;BME280;53333;51.976;20.144;2022-08-03T06:41:54;100522.19;;;24.16;58.92
36664;BME280;53333;51.976;20.144;2022-08-03T06:44:29;100514.00;;;24.34;57.21
36664;BME280;53333;51.976;20.144;2022-08-03T06:47:04;100521.00;;;24.54;56.65
36664;BME280;53333;51.976;20.144;2022-08-03T06:49:37;100528.75;;;24.77;56.68
36664;BME280;53333;51.976;20.144;2022-08-03T06:52:12;100523.44;;;25.01;56.64
36664;BME280;53333;51.976;20.144;2022-08-03T06:55:06;100520.88;;;25.26;55.36
36664;BME280;53333;51.976;20.144;2022-08-03T06:57:40;100522.72;;;25.44;54.77
36664;BME280;53333;51.976;20.144;2022-08-03T07:00:14;100524.69;;;25.60;53.98
36664;BME280;53333;51.976;20.144;2022-08-03T07:02:49;100529.03;;;25.79;53.60
36664;BME280;53333;51.976;20.144;2022-08-03T07:05:29;100522.81;;;26.03;53.20
36664;BME280;53333;51.976;20.144;2022-08-03T07:08:04;100528.34;;;26.36;51.65
36664;BME280;53333;51.976;20.144;2022-08-03T07:10:38;100530.78;;;26.63;50.85
36664;BME280;53333;51.976;20.144;2022-08-03T07:13:12;100537.81;;;26.91;49.34
36664;BME280;53333;51.976;20.144;2022-08-03T07:15:46;100535.56;;;27.19;48.62
36664;BME280;53333;51.976;20.144;2022-08-03T07:18:28;100531.22;;;27.49;47.29
36664;BME280;53333;51.976;20.144;2022-08-03T07:21:02;100539.47;;;27.81;48.71
36664;BME280;53333;51.976;20.144;2022-08-03T07:23:36;100532.03;;;28.06;45.60
36664;BME280;53333;51.976;20.144;2022-08-03T07:26:09;100531.38;;;28.27;45.18
36664;BME280;53333;51.976;20.144;2022-08-03T07:28:44;100537.31;;;28.39;45.22
36664;BME280;53333;51.976;20.144;2022-08-03T07:31:17;100529.84;;;28.48;45.77
36664;BME280;53333;51.976;20.144;2022-08-03T07:33:53;100529.97;;;28.54;45.10
36664;BME280;53333;51.976;20.144;2022-08-03T07:36:27;100527.59;;;28.59;44.27
36664;BME280;53333;51.976;20.144;2022-08-03T07:39:00;100524.47;;;28.62;44.09
36664;BME280;53333;51.976;20.144;2022-08-03T07:41:48;100524.78;;;28.68;45.22
36664;BME280;53333;51.976;20.144;2022-08-03T07:44:22;100528.38;;;28.68;44.84
36664;BME280;53333;51.976;20.144;2022-08-03T07:46:56;100526.47;;;28.69;44.94
36664;BME280;53333;51.976;20.144;2022-08-03T07:49:39;100530.25;;;28.68;45.33
36664;BME280;53333;51.976;20.144;2022-08-03T07:52:13;100533.09;;;28.59;44.92
36664;BME280;53333;51.976;20.144;2022-08-03T07:55:05;100528.66;;;28.50;46.24
36664;BME280;53333;51.976;20.144;2022-08-03T07:57:39;100536.81;;;28.35;47.00
36664;BME280;53333;51.976;20.144;2022-08-03T08:00:14;100535.41;;;28.16;47.06
36664;BME280;53333;51.976;20.144;2022-08-03T08:02:48;100536.72;;;27.97;46.76
36664;BME280;53333;51.976;20.144;2022-08-03T08:05:24;100540.38;;;27.81;47.00
36664;BME280;53333;51.976;20.144;2022-08-03T08:07:57;100536.81;;;27.64;47.25
36664;BME280;53333;51.976;20.144;2022-08-03T08:10:31;100542.03;;;27.51;46.94
36664;BME280;53333;51.976;20.144;2022-08-03T08:13:05;100537.94;;;27.39;46.48
36664;BME280;53333;51.976;20.144;2022-08-03T08:15:39;100538.81;;;27.31;46.55
36664;BME280;53333;51.976;20.144;2022-08-03T08:18:14;100539.13;;;27.28;46.86
36664;BME280;53333;51.976;20.144;2022-08-03T08:20:49;100548.19;;;27.28;47.98
36664;BME280;53333;51.976;20.144;2022-08-03T08:23:23;100548.38;;;27.27;48.45
36664;BME280;53333;51.976;20.144;2022-08-03T08:26:15;100557.28;;;27.29;48.75
36664;BME280;53333;51.976;20.144;2022-08-03T08:28:48;100544.28;;;27.31;48.76
36664;BME280;53333;51.976;20.144;2022-08-03T08:31:23;100547.34;;;27.36;48.49
36664;BME280;53333;51.976;20.144;2022-08-03T08:33:57;100552.25;;;27.57;48.27
36664;BME280;53333;51.976;20.144;2022-08-03T08:36:37;100551.28;;;27.89;47.80
36664;BME280;53333;51.976;20.144;2022-08-03T08:39:11;100547.25;;;28.40;45.26
36664;BME280;53333;51.976;20.144;2022-08-03T08:41:49;100542.03;;;29.14;44.42
36664;BME280;53333;51.976;20.144;2022-08-03T08:44:24;100540.66;;;29.63;42.46
36664;BME280;53333;51.976;20.144;2022-08-03T08:47:00;100538.84;;;30.22;41.08
36664;BME280;53333;51.976;20.144;2022-08-03T08:49:35;100543.91;;;30.98;39.60
36664;BME280;53333;51.976;20.144;2022-08-03T08:52:12;100539.81;;;31.92;38.16
36664;BME280;53333;51.976;20.144;2022-08-03T08:54:59;100543.72;;;32.80;35.69
36664;BME280;53333;51.976;20.144;2022-08-03T08:57:36;100542.19;;;33.37;34.29
36664;BME280;53333;51.976;20.144;2022-08-03T09:00:15;100546.75;;;33.90;32.99
36664;BME280;53333;51.976;20.144;2022-08-03T09:02:49;100541.91;;;34.31;32.17
36664;BME280;53333;51.976;20.144;2022-08-03T09:05:23;100538.44;;;34.74;31.51
36664;BME280;53333;51.976;20.144;2022-08-03T09:08:18;100537.38;;;35.19;30.03
36664;BME280;53333;51.976;20.144;2022-08-03T09:10:52;100543.22;;;35.36;28.66
36664;BME280;53333;51.976;20.144;2022-08-03T09:13:26;100544.59;;;35.45;27.66
36664;BME280;53333;51.976;20.144;2022-08-03T09:16:09;100547.09;;;35.72;28.02
36664;BME280;53333;51.976;20.144;2022-08-03T09:18:45;100552.34;;;35.80;28.03
36664;BME280;53333;51.976;20.144;2022-08-03T09:21:22;100536.72;;;35.86;27.27
36664;BME280;53333;51.976;20.144;2022-08-03T09:24:06;100536.88;;;36.03;26.65
36664;BME280;53333;51.976;20.144;2022-08-03T09:27:00;100543.72;;;36.18;26.37
36664;BME280;53333;51.976;20.144;2022-08-03T09:29:34;100542.19;;;36.23;26.43
36664;BME280;53333;51.976;20.144;2022-08-03T09:32:09;100533.53;;;36.31;26.77
36664;BME280;53333;51.976;20.144;2022-08-03T09:34:43;100537.47;;;36.42;26.72
36664;BME280;53333;51.976;20.144;2022-08-03T09:37:19;100524.16;;;36.55;26.34
36664;BME280;53333;51.976;20.144;2022-08-03T09:40:33;100529.72;;;36.86;27.12
36664;BME280;53333;51.976;20.144;2022-08-03T09:43:08;100518.94;;;37.01;25.52
36664;BME280;53333;51.976;20.144;2022-08-03T09:45:42;100529.88;;;37.15;27.02
36664;BME280;53333;51.976;20.144;2022-08-03T09:48:21;100522.84;;;37.24;25.99
36664;BME280;53333;51.976;20.144;2022-08-03T09:50:57;100522.84;;;37.36;26.35
36664;BME280;53333;51.976;20.144;2022-08-03T09:53:45;100530.34;;;37.47;25.76
36664;BME280;53333;51.976;20.144;2022-08-03T09:56:40;100525.22;;;37.68;25.17
36664;BME280;53333;51.976;20.144;2022-08-03T09:59:23;100526.44;;;37.72;24.75
36664;BME280;53333;51.976;20.144;2022-08-03T10:01:57;100522.22;;;37.69;24.97
36664;BME280;53333;51.976;20.144;2022-08-03T10:04:32;100526.81;;;37.75;25.01
36664;BME280;53333;51.976;20.144;2022-08-03T10:07:07;100517.00;;;37.61;24.28
36664;BME280;53333;51.976;20.144;2022-08-03T10:09:52;100513.91;;;37.22;24.84
36664;BME280;53333;51.976;20.144;2022-08-03T10:12:28;100514.22;;;37.02;24.31
36664;BME280;53333;51.976;20.144;2022-08-03T10:15:01;100515.47;;;36.94;25.77
36664;BME280;53333;51.976;20.144;2022-08-03T10:17:35;100517.53;;;36.99;26.45
36664;BME280;53333;51.976;20.144;2022-08-03T10:20:11;100511.59;;;37.07;26.82
36664;BME280;53333;51.976;20.144;2022-08-03T10:22:45;100507.47;;;36.86;26.59
36664;BME280;53333;51.976;20.144;2022-08-03T10:25:20;100517.38;;;36.94;27.11
36664;BME280;53333;51.976;20.144;2022-08-03T10:28:05;100515.94;;;37.03;26.40
36664;BME280;53333;51.976;20.144;2022-08-03T10:30:43;100513.66;;;37.12;25.23
36664;BME280;53333;51.976;20.144;2022-08-03T10:33:22;100515.81;;;37.09;25.10
36664;BME280;53333;51.976;20.144;2022-08-03T10:36:17;100514.59;;;37.17;25.55
36664;BME280;53333;51.976;20.144;2022-08-03T10:38:51;100513.06;;;37.21;25.15
36664;BME280;53333;51.976;20.144;2022-08-03T10:41:31;100505.22;;;36.52;25.68
36664;BME280;53333;51.976;20.144;2022-08-03T10:44:10;100508.69;;;35.06;27.38
36664;BME280;53333;51.976;20.144;2022-08-03T10:46:47;100513.59;;;33.77;28.64
36664;BME280;53333;51.976;20.144;2022-08-03T10:49:22;100503.28;;;32.65;30.10
36664;BME280;53333;51.976;20.144;2022-08-03T10:52:06;100511.09;;;32.48;30.52
36664;BME280;53333;51.976;20.144;2022-08-03T10:54:45;100503.13;;;32.05;31.35
36664;BME280;53333;51.976;20.144;2022-08-03T10:57:49;100498.09;;;31.32;31.96
36664;BME280;53333;51.976;20.144;2022-08-03T11:00:47;100497.50;;;30.80;33.55
36664;BME280;53333;51.976;20.144;2022-08-03T11:03:22;100502.75;;;30.32;33.91
36664;BME280;53333;51.976;20.144;2022-08-03T11:06:14;100492.03;;;30.00;35.30
36664;BME280;53333;51.976;20.144;2022-08-03T11:09:13;100488.53;;;29.92;35.33
36664;BME280;53333;51.976;20.144;2022-08-03T11:11:47;100494.72;;;29.79;35.69
36664;BME280;53333;51.976;20.144;2022-08-03T11:14:22;100487.03;;;29.74;37.29
36664;BME280;53333;51.976;20.144;2022-08-03T11:17:07;100489.88;;;29.66;38.39
36664;BME280;53333;51.976;20.144;2022-08-03T11:19:46;100484.88;;;29.69;38.53
36664;BME280;53333;51.976;20.144;2022-08-03T11:22:46;100483.59;;;30.02;38.03
36664;BME280;53333;51.976;20.144;2022-08-03T11:25:21;100483.69;;;30.30;37.78
36664;BME280;53333;51.976;20.144;2022-08-03T11:28:24;100477.78;;;30.55;36.19
36664;BME280;53333;51.976;20.144;2022-08-03T11:34:24;100480.06;;;30.30;36.03
36664;BME280;53333;51.976;20.144;2022-08-03T11:37:23;100472.19;;;30.05;36.34
36664;BME280;53333;51.976;20.144;2022-08-03T11:40:04;100463.78;;;29.77;37.31
36664;BME280;53333;51.976;20.144;2022-08-03T11:42:39;100471.31;;;29.53;37.46
36664;BME280;53333;51.976;20.144;2022-08-03T11:45:15;100470.50;;;29.38;38.67
36664;BME280;53333;51.976;20.144;2022-08-03T11:47:53;100467.25;;;29.19;38.99
36664;BME280;53333;51.976;20.144;2022-08-03T11:50:35;100475.13;;;29.22;40.09
36664;BME280;53333;51.976;20.144;2022-08-03T11:53:13;100466.47;;;29.40;38.56
36664;BME280;53333;51.976;20.144;2022-08-03T11:55:47;100466.94;;;29.59;37.94
36664;BME280;53333;51.976;20.144;2022-08-03T11:58:22;100463.69;;;29.70;37.57
36664;BME280;53333;51.976;20.144;2022-08-03T12:01:16;100467.75;;;29.74;37.85
36664;BME280;53333;51.976;20.144;2022-08-03T12:03:54;100467.56;;;29.76;38.62
36664;BME280;53333;51.976;20.144;2022-08-03T12:06:29;100458.06;;;29.78;38.49
36664;BME280;53333;51.976;20.144;2022-08-03T12:09:14;100451.91;;;29.91;37.79
36664;BME280;53333;51.976;20.144;2022-08-03T12:11:52;100452.72;;;30.06;38.07
36664;BME280;53333;51.976;20.144;2022-08-03T12:14:31;100453.50;;;30.22;38.17
36664;BME280;53333;51.976;20.144;2022-08-03T12:17:22;100454.38;;;30.44;37.58
36664;BME280;53333;51.976;20.144;2022-08-03T12:19:56;100449.00;;;30.57;37.88
36664;BME280;53333;51.976;20.144;2022-08-03T12:22:32;100441.66;;;30.71;36.60
36664;BME280;53333;51.976;20.144;2022-08-03T12:25:07;100451.00;;;30.70;36.40
36664;BME280;53333;51.976;20.144;2022-08-03T12:27:41;100447.16;;;30.71;38.05
36664;BME280;53333;51.976;20.144;2022-08-03T12:30:15;100446.78;;;30.74;37.06
36664;BME280;53333;51.976;20.144;2022-08-03T12:32:49;100440.81;;;30.71;35.98
36664;BME280;53333;51.976;20.144;2022-08-03T12:35:23;100448.44;;;30.69;36.02
36664;BME280;53333;51.976;20.144;2022-08-03T12:37:58;100444.81;;;30.68;35.49
36664;BME280;53333;51.976;20.144;2022-08-03T12:40:32;100442.81;;;30.84;35.20
36664;BME280;53333;51.976;20.144;2022-08-03T12:43:10;100438.31;;;31.04;35.19
36664;BME280;53333;51.976;20.144;2022-08-03T12:45:45;100434.84;;;31.30;34.40
36664;BME280;53333;51.976;20.144;2022-08-03T12:48:18;100433.44;;;31.48;34.88
36664;BME280;53333;51.976;20.144;2022-08-03T12:51:07;100435.16;;;31.49;33.99
36664;BME280;53333;51.976;20.144;2022-08-03T12:53:51;100436.16;;;31.35;34.40
36664;BME280;53333;51.976;20.144;2022-08-03T12:56:25;100436.09;;;31.21;34.45
36664;BME280;53333;51.976;20.144;2022-08-03T12:58:58;100426.47;;;31.04;35.44
36664;BME280;53333;51.976;20.144;2022-08-03T13:01:35;100412.28;;;30.85;35.27
36664;BME280;53333;51.976;20.144;2022-08-03T13:04:27;100423.25;;;30.72;35.25
36664;BME280;53333;51.976;20.144;2022-08-03T13:07:06;100418.53;;;30.66;35.28
36664;BME280;53333;51.976;20.144;2022-08-03T13:09:48;100417.00;;;30.63;35.35
36664;BME280;53333;51.976;20.144;2022-08-03T13:12:23;100408.09;;;30.61;34.83
36664;BME280;53333;51.976;20.144;2022-08-03T13:14:59;100415.25;;;30.55;35.52
36664;BME280;53333;51.976;20.144;2022-08-03T13:17:33;100417.56;;;30.52;35.67
36664;BME280;53333;51.976;20.144;2022-08-03T13:20:10;100418.63;;;30.51;35.40
36664;BME280;53333;51.976;20.144;2022-08-03T13:22:46;100414.81;;;30.52;35.30
36664;BME280;53333;51.976;20.144;2022-08-03T13:25:24;100405.31;;;30.54;35.79
36664;BME280;53333;51.976;20.144;2022-08-03T13:27:57;100406.19;;;30.61;35.55
36664;BME280;53333;51.976;20.144;2022-08-03T13:30:36;100404.31;;;30.62;35.20
36664;BME280;53333;51.976;20.144;2022-08-03T13:33:10;100401.09;;;30.58;35.82
36664;BME280;53333;51.976;20.144;2022-08-03T13:35:44;100411.00;;;30.53;36.03
36664;BME280;53333;51.976;20.144;2022-08-03T13:38:18;100405.25;;;30.48;35.55
36664;BME280;53333;51.976;20.144;2022-08-03T13:41:01;100399.88;;;30.39;35.85
36664;BME280;53333;51.976;20.144;2022-08-03T13:43:36;100400.84;;;30.32;35.82